createdAt,value
2019-06-26T00:03:19.889Z,11
2019-06-26T00:08:24.788Z,10.9
2019-06-26T00:13:30.057Z,11.8
2019-06-26T00:18:35.486Z,11.2
2019-06-26T00:23:40.319Z,11.4
2019-06-26T00:28:45.241Z,12.4
2019-06-26T00:33:50.075Z,11.4
2019-06-26T00:38:57.655Z,12.2
2019-06-26T00:44:02.649Z,12.2
2019-06-26T00:49:06.158Z,11.7
2019-06-26T00:54:11.131Z,12.1
2019-06-26T00:59:16.154Z,12.8
2019-06-26T01:04:21.518Z,12.1
2019-06-26T01:09:26.816Z,12.1
2019-06-26T01:14:31.648Z,11.7
2019-06-26T01:19:36.654Z,11.9
2019-06-26T01:24:41.451Z,12.2
2019-06-26T01:29:46.584Z,11.7
2019-06-26T01:34:51.526Z,13
2019-06-26T01:39:56.448Z,12.8
2019-06-26T01:45:01.392Z,13.1
2019-06-26T01:50:06.471Z,12.4
2019-06-26T01:55:11.429Z,12.6
2019-06-26T02:00:16.675Z,12.1
2019-06-26T02:05:21.681Z,12.8
2019-06-26T02:10:28.645Z,19.2
2019-06-26T02:15:31.981Z,12.2
2019-06-26T02:20:37.025Z,12.9
2019-06-26T02:25:41.790Z,12.5
2019-06-26T02:30:46.676Z,12.7
2019-06-26T02:37:03.577Z,12.2
2019-06-26T02:42:08.491Z,12.3
2019-06-26T02:47:21.048Z,12.1
2019-06-26T02:52:16.101Z,12.4
2019-06-26T02:57:21.243Z,13.7
2019-06-26T03:02:26.172Z,13.6
2019-06-26T03:07:31.028Z,13.4
2019-06-26T03:12:36.045Z,14
2019-06-26T03:17:55.960Z,13.7
2019-06-26T03:22:41.285Z,14.4
2019-06-26T03:27:46.538Z,14.5
2019-06-26T03:32:51.337Z,13.9
2019-06-26T03:37:56.430Z,13.4
2019-06-26T03:43:01.549Z,13.5
2019-06-26T03:48:06.657Z,13.3
2019-06-26T03:53:11.910Z,13
2019-06-26T03:58:16.647Z,12.7
2019-06-26T04:03:21.797Z,12.6
2019-06-26T04:08:26.894Z,11.8
2019-06-26T04:13:31.913Z,11.4
2019-06-26T04:18:38.403Z,11.4
2019-06-26T04:23:43.779Z,11
2019-06-26T04:28:49.372Z,10.6
2019-06-26T04:33:54.153Z,10.7
2019-06-26T04:38:59.552Z,10.7
2019-06-26T04:44:05.510Z,10.2
2019-06-26T04:49:10.447Z,10.3
2019-06-26T04:54:16.200Z,10.3
2019-06-26T04:59:20.940Z,9.9
2019-06-26T05:04:24.347Z,9
2019-06-26T05:09:29.543Z,8.4
2019-06-26T05:14:34.605Z,8.1
2019-06-26T05:19:38.761Z,8
2019-06-26T05:24:47.314Z,7.4
2019-06-26T05:29:55.271Z,7
2019-06-26T05:35:00.410Z,7.4
2019-06-26T05:40:05.413Z,6.8
2019-06-26T05:45:10.800Z,6.3
2019-06-26T05:50:16.246Z,6.7
2019-06-26T05:55:21.180Z,6.8
2019-06-26T06:00:26.574Z,9.3
2019-06-26T06:05:29.911Z,6.3
2019-06-26T06:10:34.838Z,6.1
2019-06-26T06:15:40.021Z,6.3
2019-06-26T06:20:44.944Z,6.7
2019-06-26T06:25:49.929Z,6.2
2019-06-26T06:30:54.692Z,5.8
2019-06-26T06:35:59.603Z,5.6
2019-06-26T06:41:04.677Z,5.1
2019-06-26T06:46:09.540Z,5
2019-06-26T06:51:14.762Z,5
2019-06-26T06:56:19.608Z,4.8
2019-06-26T07:01:24.631Z,5
2019-06-26T07:06:30.111Z,4.8
2019-06-26T07:11:35.470Z,4.7
2019-06-26T07:16:40.496Z,6
2019-06-26T07:21:45.377Z,4.6
2019-06-26T07:26:50.248Z,4.8
2019-06-26T07:31:55.009Z,4.3
2019-06-26T07:36:59.876Z,4.7
2019-06-26T07:42:05.294Z,5
2019-06-26T07:47:38.609Z,4.7
2019-06-26T07:52:18.440Z,4.6
2019-06-26T07:57:23.666Z,4.6
2019-06-26T08:02:29.095Z,4.5
2019-06-26T08:07:32.813Z,4.8
2019-06-26T08:12:38.149Z,4.6
2019-06-26T08:18:01.444Z,4.7
2019-06-26T08:22:46.673Z,5.3
2019-06-26T08:27:51.705Z,4.9
2019-06-26T08:32:56.877Z,5.2
2019-06-26T08:38:15.426Z,5.3
2019-06-26T08:43:10.712Z,4.9
2019-06-26T08:48:39.866Z,4.8
2019-06-26T08:53:15.813Z,4.5
2019-06-26T08:58:20.836Z,4.9
2019-06-26T09:03:25.546Z,5.1
2019-06-26T09:08:29.587Z,5
2019-06-26T09:13:35.796Z,5.4
2019-06-26T09:18:39.849Z,5.4
2019-06-26T09:23:45.077Z,5.4
2019-06-26T09:28:48.820Z,5.2
2019-06-26T09:33:53.648Z,5.5
2019-06-26T09:38:58.890Z,5.1
2019-06-26T09:44:04.086Z,5.8
2019-06-26T09:49:09.212Z,5.6
2019-06-26T09:54:13.989Z,5.6
2019-06-26T09:59:19.124Z,5.5
2019-06-26T10:04:23.855Z,5.1
2019-06-26T10:09:31.841Z,5.8
2019-06-26T10:14:48.456Z,5.7
2019-06-26T10:19:43.556Z,5.6
2019-06-26T10:24:48.506Z,6.3
2019-06-26T10:29:53.424Z,6.1
2019-06-26T10:34:58.306Z,6.1
2019-06-26T10:40:03.304Z,6.2
2019-06-26T10:45:08.705Z,6.5
2019-06-26T10:50:13.812Z,6.8
2019-06-26T10:55:18.544Z,6
2019-06-26T11:00:23.638Z,7
2019-06-26T11:05:28.439Z,6
2019-06-26T11:10:33.255Z,5.7
2019-06-26T11:15:38.133Z,5.4
2019-06-26T11:20:44.558Z,5.4
2019-06-26T11:25:49.411Z,5.2
2019-06-26T11:30:54.604Z,5.8
2019-06-26T11:35:59.559Z,5.8
2019-06-26T11:41:04.761Z,6.1
2019-06-26T11:46:09.788Z,6.5
2019-06-26T11:51:14.776Z,5.9
2019-06-26T11:56:19.777Z,5.9
2019-06-26T12:01:23.664Z,6.1
2019-06-26T12:06:31.753Z,6.2
2019-06-26T12:11:37.021Z,5.7
2019-06-26T12:16:41.883Z,6
2019-06-26T12:21:49.357Z,5.4
2019-06-26T12:26:54.424Z,5.4
2019-06-26T12:31:59.335Z,6.6
2019-06-26T12:37:04.675Z,5.9
2019-06-26T12:42:09.628Z,5.5
2019-06-26T12:47:14.399Z,5.4
2019-06-26T12:52:19.404Z,5.5
2019-06-26T12:57:22.755Z,5.4
2019-06-26T13:02:28.021Z,5.5
2019-06-26T13:07:32.835Z,5.4
2019-06-26T13:12:38.052Z,5.7
2019-06-26T13:17:41.714Z,5.8
2019-06-26T13:22:47.012Z,6.4
2019-06-26T13:27:51.889Z,6.2
2019-06-26T13:32:56.835Z,6.6
2019-06-26T13:38:01.858Z,7.5
2019-06-26T13:43:10.459Z,6.6
2019-06-26T13:48:16.091Z,6.1
2019-06-26T13:53:20.111Z,6.3
2019-06-26T13:58:25.126Z,6
2019-06-26T14:03:29.996Z,8.2
2019-06-26T14:08:34.874Z,6.3
2019-06-26T14:13:42.676Z,5.5
2019-06-26T14:18:47.837Z,8.8
2019-06-26T14:23:51.399Z,6.2
2019-06-26T14:28:55.097Z,5.7
2019-06-26T14:34:00.260Z,5.7
2019-06-26T14:39:05.322Z,6
2019-06-26T14:44:10.278Z,6.3
2019-06-26T14:49:14.042Z,6.3
2019-06-26T14:54:18.878Z,6.3
2019-06-26T14:59:23.893Z,6
2019-06-26T15:04:28.034Z,6.1
2019-06-26T15:09:33.172Z,6
2019-06-26T15:14:40.259Z,6.2
2019-06-26T15:19:45.667Z,5.8
2019-06-26T15:24:51.125Z,5.9
2019-06-26T15:29:56.208Z,5.9
2019-06-26T15:35:01.734Z,5.8
2019-06-26T15:40:06.803Z,5.8
2019-06-26T15:45:11.858Z,5.8
2019-06-26T15:50:16.918Z,6.2
2019-06-26T15:55:22.149Z,6.8
2019-06-26T16:00:27.043Z,5.6
2019-06-26T16:05:32.030Z,5.5
2019-06-26T16:10:37.016Z,6.1
2019-06-26T16:15:42.039Z,5.6
2019-06-26T16:20:46.967Z,5.9
2019-06-26T16:25:52.294Z,6.1
2019-06-26T16:30:57.349Z,5.9
2019-06-26T16:36:02.294Z,5.9
2019-06-26T16:41:07.435Z,6.3
2019-06-26T16:46:12.350Z,6.1
2019-06-26T16:51:17.400Z,6
2019-06-26T16:56:22.307Z,6.2
2019-06-26T17:01:27.159Z,5.8
2019-06-26T17:06:32.062Z,5.9
2019-06-26T17:11:35.491Z,5.7
2019-06-26T17:16:40.642Z,6
2019-06-26T17:21:48.187Z,6.1
2019-06-26T17:26:53.549Z,6.1
2019-06-26T17:31:57.193Z,6.6
2019-06-26T17:37:02.291Z,6.4
2019-06-26T17:42:06.106Z,6.1
2019-06-26T17:47:11.053Z,6.3
2019-06-26T17:52:16.389Z,6.2
2019-06-26T17:57:21.549Z,6.5
2019-06-26T18:02:26.796Z,6
2019-06-26T18:07:32.206Z,6.9
2019-06-26T18:12:35.845Z,7
2019-06-26T18:17:41.210Z,6.7
2019-06-26T18:22:46.092Z,7.6
2019-06-26T18:27:51.204Z,7.1
2019-06-26T18:32:56.089Z,7.9
2019-06-26T18:38:00.987Z,8.3
2019-06-26T18:43:08.950Z,7.9
2019-06-26T18:48:14.201Z,6.5
2019-06-26T18:53:19.501Z,7.7
2019-06-26T18:58:24.821Z,8.4
2019-06-26T19:03:33.513Z,8.3
2019-06-26T19:08:39.390Z,7.7
2019-06-26T19:13:45.298Z,9.5
2019-06-26T19:18:51.321Z,7.4
2019-06-26T19:24:10.882Z,7.4
2019-06-26T19:28:56.934Z,7.9
2019-06-26T19:34:02.865Z,9.1
2019-06-26T19:39:09.362Z,10.4
2019-06-26T19:44:15.258Z,10.1
2019-06-26T19:49:23.203Z,9.9
2019-06-26T19:54:33.246Z,9.8
2019-06-26T19:59:29.115Z,9.5
2019-06-26T20:04:35.960Z,9.3
2019-06-26T20:09:43.210Z,10
2019-06-26T20:14:53.130Z,10.6
2019-06-26T20:19:50.734Z,9.6
2019-06-26T20:24:58.586Z,9.8
2019-06-26T20:30:09.291Z,10.1
2019-06-26T20:35:15.911Z,11
2019-06-26T20:40:22.323Z,12.2
2019-06-26T20:45:26.680Z,10.9
2019-06-26T20:50:32.336Z,10.6
2019-06-26T20:55:37.687Z,11
2019-06-26T21:00:43.490Z,9.6
2019-06-26T21:05:48.597Z,9.5
2019-06-26T21:10:54.390Z,9.7
2019-06-26T21:16:00.062Z,9.8
2019-06-26T21:21:05.042Z,10.1
2019-06-26T21:26:10.485Z,9.5
2019-06-26T21:31:15.545Z,10.1
2019-06-26T21:36:21.185Z,10.9
2019-06-26T21:41:26.491Z,11.6
2019-06-26T21:46:32.229Z,12.1
2019-06-26T21:51:37.360Z,12.3
2019-06-26T21:56:42.342Z,12.5
2019-06-26T22:01:47.707Z,11.8
2019-06-26T22:06:52.690Z,12.6
2019-06-26T22:12:01.542Z,12.1
2019-06-26T22:17:06.888Z,13.4
2019-06-26T22:22:11.846Z,12.7
2019-06-26T22:27:17.271Z,11.9
2019-06-26T22:32:22.849Z,12.9
2019-06-26T22:37:28.274Z,11.6
2019-06-26T22:42:34.130Z,11.2
2019-06-26T22:47:39.601Z,11.5
2019-06-26T22:52:45.418Z,11.1
2019-06-26T22:57:50.565Z,10.7
2019-06-26T23:02:55.536Z,11
2019-06-26T23:08:01.103Z,11.2
2019-06-26T23:13:10.462Z,11.5
2019-06-26T23:18:15.739Z,11.1
2019-06-26T23:23:21.275Z,11.5
2019-06-26T23:28:26.810Z,11.5
2019-06-26T23:33:31.924Z,11.4
2019-06-26T23:38:37.157Z,10.9
2019-06-26T23:43:42.248Z,11.4
2019-06-26T23:48:47.004Z,11.1
2019-06-26T23:53:52.481Z,11.2
2019-06-26T23:58:57.769Z,11.5
